LROP/OTP METAR and TAF weather

Enter ICAO airport designator
Station Type Date Time Source
LROP METAR 2021/03/06 02:00 UTC NOAA

LROP 060200Z 11014KT CAVOK 05/00 Q1017 NOSIG


Station Type Date Time Source
LROP Decoded METAR 2021/03/06 02:00 UTC NOAA

Bucuresti Otopeni, Romania (LROP) 44-33N 026-06E 95M
Mar 05, 2021 - 09:00 PM EST / 2021.03.06 0200 UTC
Wind: from the ESE (110 degrees) at 16 MPH (14 KT):0
Visibility: greater than 7 mile(s):0
Temperature: 41 F (5 C)
Dew Point: 32 F (0 C)
Relative Humidity: 70%
Pressure (altimeter): 30.03 in. Hg (1017 hPa)
ob: LROP 060200Z 11014KT CAVOK 05/00 Q1017 NOSIG
cycle: 2

Station Type Date Time Source
LROP TAF 2021/03/05 18:33 UTC NOAA

TAF LROP 051700Z 0518/0618 26012KT CAVOK
BECMG 0522/0600 VRB04KT
BECMG 0602/0604 09015KT
BECMG 0607/0609 5000 -SN BKN010 BKN030
TEMPO 0609/0613 3000 SN BKN005 OVC030
BECMG 0614/0616 9999 NSW
BECMG 0616/0618 08005KT

Example: see airport list